sensor_id;sensor_type;location;lat;lon;timestamp;pressure;altitude;pressure_sealevel;temperature;humidity
60854;BME280;48554;50.766;2.900;2022-10-31T00:02:18;101424.38;;;18.59;67.64
60854;BME280;48554;50.766;2.900;2022-10-31T00:04:39;101421.13;;;18.57;67.52
60854;BME280;48554;50.766;2.900;2022-10-31T00:06:59;101417.84;;;18.55;67.67
60854;BME280;48554;50.766;2.900;2022-10-31T00:09:19;101420.31;;;18.57;67.48
60854;BME280;48554;50.766;2.900;2022-10-31T00:11:39;101421.13;;;18.57;67.53
60854;BME280;48554;50.766;2.900;2022-10-31T00:14:00;101424.06;;;18.56;67.66
60854;BME280;48554;50.766;2.900;2022-10-31T00:16:22;101419.97;;;18.53;67.61
60854;BME280;48554;50.766;2.900;2022-10-31T00:18:43;101423.47;;;18.54;67.57
60854;BME280;48554;50.766;2.900;2022-10-31T00:21:03;101422.66;;;18.53;67.66
60854;BME280;48554;50.766;2.900;2022-10-31T00:23:24;101420.53;;;18.55;67.49
60854;BME280;48554;50.766;2.900;2022-10-31T00:25:44;101417.84;;;18.55;67.41
60854;BME280;48554;50.766;2.900;2022-10-31T00:28:07;101427.78;;;18.55;67.37
60854;BME280;48554;50.766;2.900;2022-10-31T00:30:28;101421.81;;;18.53;67.33
60854;BME280;48554;50.766;2.900;2022-10-31T00:32:49;101422.88;;;18.52;67.49
60854;BME280;48554;50.766;2.900;2022-10-31T00:35:09;101416.47;;;18.53;67.35
60854;BME280;48554;50.766;2.900;2022-10-31T00:37:29;101426.38;;;18.52;67.48
60854;BME280;48554;50.766;2.900;2022-10-31T00:39:50;101433.25;;;18.48;67.55
60854;BME280;48554;50.766;2.900;2022-10-31T00:42:10;101427.91;;;18.48;67.47
60854;BME280;48554;50.766;2.900;2022-10-31T00:44:30;101428.16;;;18.47;67.51
60854;BME280;48554;50.766;2.900;2022-10-31T00:46:50;101421.72;;;18.48;67.33
60854;BME280;48554;50.766;2.900;2022-10-31T00:49:11;101432.22;;;18.49;67.26
60854;BME280;48554;50.766;2.900;2022-10-31T00:51:31;101426.28;;;18.47;67.13
60854;BME280;48554;50.766;2.900;2022-10-31T00:53:51;101415.22;;;18.44;67.32
60854;BME280;48554;50.766;2.900;2022-10-31T00:56:11;101428.63;;;18.44;67.25
60854;BME280;48554;50.766;2.900;2022-10-31T00:58:32;101419.28;;;18.46;67.12
60854;BME280;48554;50.766;2.900;2022-10-31T01:00:52;101420.09;;;18.47;67.13
60854;BME280;48554;50.766;2.900;2022-10-31T01:03:13;101417.66;;;18.45;67.28
60854;BME280;48554;50.766;2.900;2022-10-31T01:05:33;101411.47;;;18.45;67.22
60854;BME280;48554;50.766;2.900;2022-10-31T01:07:53;101418.34;;;18.40;67.17
60854;BME280;48554;50.766;2.900;2022-10-31T01:10:14;101415.44;;;18.42;67.38
60854;BME280;48554;50.766;2.900;2022-10-31T01:12:52;101420.22;;;18.40;67.09
60854;BME280;48554;50.766;2.900;2022-10-31T01:15:14;101416.72;;;18.39;66.70
60854;BME280;48554;50.766;2.900;2022-10-31T01:17:35;101411.47;;;18.45;66.53
60854;BME280;48554;50.766;2.900;2022-10-31T01:19:55;101407.88;;;18.39;66.93
60854;BME280;48554;50.766;2.900;2022-10-31T01:22:15;101409.63;;;18.33;67.10
60854;BME280;48554;50.766;2.900;2022-10-31T01:24:35;101412.88;;;18.35;66.99
60854;BME280;48554;50.766;2.900;2022-10-31T01:26:56;101409.06;;;18.31;67.06
60854;BME280;48554;50.766;2.900;2022-10-31T01:29:16;101402.28;;;18.29;66.85
60854;BME280;48554;50.766;2.900;2022-10-31T01:31:38;101405.22;;;18.27;66.89
60854;BME280;48554;50.766;2.900;2022-10-31T01:33:59;101401.94;;;18.25;66.84
60854;BME280;48554;50.766;2.900;2022-10-31T01:36:29;101405.69;;;18.24;66.75
60854;BME280;48554;50.766;2.900;2022-10-31T01:38:52;101406.97;;;18.22;66.84
60854;BME280;48554;50.766;2.900;2022-10-31T01:41:16;101403.47;;;18.21;66.69
60854;BME280;48554;50.766;2.900;2022-10-31T01:43:54;101395.91;;;18.18;66.84
60854;BME280;48554;50.766;2.900;2022-10-31T01:46:18;101391.59;;;18.17;66.83
60854;BME280;48554;50.766;2.900;2022-10-31T01:48:40;101396.13;;;18.16;66.77
60854;BME280;48554;50.766;2.900;2022-10-31T01:51:01;101387.84;;;18.18;66.86
60854;BME280;48554;50.766;2.900;2022-10-31T01:53:23;101390.53;;;18.18;66.81
60854;BME280;48554;50.766;2.900;2022-10-31T01:55:44;101393.44;;;18.16;66.84
60854;BME280;48554;50.766;2.900;2022-10-31T01:58:15;101391.81;;;18.15;66.98
60854;BME280;48554;50.766;2.900;2022-10-31T02:00:38;101388.53;;;18.13;67.06
60854;BME280;48554;50.766;2.900;2022-10-31T02:02:59;101390.66;;;18.11;67.00
60854;BME280;48554;50.766;2.900;2022-10-31T02:05:22;101387.41;;;18.09;66.96
60854;BME280;48554;50.766;2.900;2022-10-31T02:10:26;101383.06;;;18.08;67.21
60854;BME280;48554;50.766;2.900;2022-10-31T02:12:47;101390.31;;;18.08;67.07
60854;BME280;48554;50.766;2.900;2022-10-31T02:15:09;101381.47;;;18.07;67.10
60854;BME280;48554;50.766;2.900;2022-10-31T02:17:30;101381.69;;;18.06;67.10
60854;BME280;48554;50.766;2.900;2022-10-31T02:20:15;101378.41;;;18.04;67.16
60854;BME280;48554;50.766;2.900;2022-10-31T02:31:16;101387.75;;;18.01;67.30
60854;BME280;48554;50.766;2.900;2022-10-31T02:36:36;101376.44;;;17.99;67.19
60854;BME280;48554;50.766;2.900;2022-10-31T02:41:31;101368.41;;;17.99;66.88
60854;BME280;48554;50.766;2.900;2022-10-31T02:46:34;101364.91;;;17.99;66.71
60854;BME280;48554;50.766;2.900;2022-10-31T02:49:01;101363.63;;;18.01;66.58
60854;BME280;48554;50.766;2.900;2022-10-31T02:51:23;101360.00;;;18.07;66.53
60854;BME280;48554;50.766;2.900;2022-10-31T02:53:44;101361.63;;;18.08;66.56
60854;BME280;48554;50.766;2.900;2022-10-31T02:56:08;101359.75;;;18.09;66.68
60854;BME280;48554;50.766;2.900;2022-10-31T02:58:34;101360.34;;;18.11;66.75
60854;BME280;48554;50.766;2.900;2022-10-31T03:04:04;101362.22;;;18.10;66.30
60854;BME280;48554;50.766;2.900;2022-10-31T03:06:33;101355.47;;;18.08;66.27
60854;BME280;48554;50.766;2.900;2022-10-31T03:09:26;101354.38;;;18.09;66.15
60854;BME280;48554;50.766;2.900;2022-10-31T03:14:46;101368.88;;;18.08;66.09
60854;BME280;48554;50.766;2.900;2022-10-31T03:19:55;101358.25;;;18.01;66.21
60854;BME280;48554;50.766;2.900;2022-10-31T03:22:22;101358.03;;;18.03;65.95
60854;BME280;48554;50.766;2.900;2022-10-31T03:24:44;101351.59;;;18.04;66.09
60854;BME280;48554;50.766;2.900;2022-10-31T03:27:08;101359.06;;;18.02;65.92
60854;BME280;48554;50.766;2.900;2022-10-31T03:29:34;101351.50;;;17.99;66.00
60854;BME280;48554;50.766;2.900;2022-10-31T03:32:11;101358.25;;;18.01;66.00
60854;BME280;48554;50.766;2.900;2022-10-31T03:34:35;101359.91;;;18.02;65.89
60854;BME280;48554;50.766;2.900;2022-10-31T03:36:59;101349.19;;;18.02;66.04
60854;BME280;48554;50.766;2.900;2022-10-31T03:39:22;101347.31;;;18.03;65.92
60854;BME280;48554;50.766;2.900;2022-10-31T03:41:43;101345.66;;;18.02;65.93
60854;BME280;48554;50.766;2.900;2022-10-31T03:44:12;101336.00;;;18.01;65.58
60854;BME280;48554;50.766;2.900;2022-10-31T03:46:34;101346.13;;;17.99;66.01
60854;BME280;48554;50.766;2.900;2022-10-31T03:48:54;101336.00;;;18.01;66.02
60854;BME280;48554;50.766;2.900;2022-10-31T03:53:54;101330.06;;;17.99;65.92
60854;BME280;48554;50.766;2.900;2022-10-31T03:56:22;101332.72;;;17.99;65.97
60854;BME280;48554;50.766;2.900;2022-10-31T04:02:06;101325.75;;;17.98;66.01
60854;BME280;48554;50.766;2.900;2022-10-31T04:04:29;101319.31;;;17.99;66.07
60854;BME280;48554;50.766;2.900;2022-10-31T04:06:50;101321.19;;;17.98;65.88
60854;BME280;48554;50.766;2.900;2022-10-31T04:09:13;101323.78;;;17.93;65.96
60854;BME280;48554;50.766;2.900;2022-10-31T04:11:40;101323.53;;;17.94;66.03
60854;BME280;48554;50.766;2.900;2022-10-31T04:14:04;101317.59;;;17.92;65.94
60854;BME280;48554;50.766;2.900;2022-10-31T04:16:26;101320.03;;;17.94;66.03
60854;BME280;48554;50.766;2.900;2022-10-31T04:18:46;101325.41;;;17.94;66.04
60854;BME280;48554;50.766;2.900;2022-10-31T04:21:07;101326.47;;;17.93;65.81
60854;BME280;48554;50.766;2.900;2022-10-31T04:23:28;101318.41;;;17.93;65.83
60854;BME280;48554;50.766;2.900;2022-10-31T04:25:49;101322.97;;;17.92;65.81
60854;BME280;48554;50.766;2.900;2022-10-31T04:28:09;101315.97;;;17.91;65.69
60854;BME280;48554;50.766;2.900;2022-10-31T04:30:29;101325.06;;;17.90;65.89
60854;BME280;48554;50.766;2.900;2022-10-31T04:32:49;101315.63;;;17.88;65.73
60854;BME280;48554;50.766;2.900;2022-10-31T04:35:10;101315.84;;;17.86;65.89
60854;BME280;48554;50.766;2.900;2022-10-31T04:37:30;101318.53;;;17.86;65.73
60854;BME280;48554;50.766;2.900;2022-10-31T04:39:50;101315.63;;;17.88;65.67
60854;BME280;48554;50.766;2.900;2022-10-31T04:42:10;101320.41;;;17.86;65.80
60854;BME280;48554;50.766;2.900;2022-10-31T04:44:31;101323.66;;;17.88;65.70
60854;BME280;48554;50.766;2.900;2022-10-31T04:46:51;101323.91;;;17.86;65.79
60854;BME280;48554;50.766;2.900;2022-10-31T04:49:11;101315.25;;;17.84;65.85
60854;BME280;48554;50.766;2.900;2022-10-31T04:51:31;101317.38;;;17.82;65.89
60854;BME280;48554;50.766;2.900;2022-10-31T04:53:52;101323.16;;;17.79;65.89
60854;BME280;48554;50.766;2.900;2022-10-31T04:56:12;101312.34;;;17.74;65.86
60854;BME280;48554;50.766;2.900;2022-10-31T04:58:32;101315.03;;;17.74;65.80
60854;BME280;48554;50.766;2.900;2022-10-31T05:00:53;101299.41;;;17.71;65.95
60854;BME280;48554;50.766;2.900;2022-10-31T05:03:13;101294.06;;;17.71;65.87
60854;BME280;48554;50.766;2.900;2022-10-31T05:05:34;101299.41;;;17.71;65.82
60854;BME280;48554;50.766;2.900;2022-10-31T05:07:54;101290.78;;;17.69;65.86
60854;BME280;48554;50.766;2.900;2022-10-31T05:10:17;101295.34;;;17.68;66.02
60854;BME280;48554;50.766;2.900;2022-10-31T05:12:45;101292.31;;;17.65;66.10
60854;BME280;48554;50.766;2.900;2022-10-31T05:15:06;101304.09;;;17.64;66.13
60854;BME280;48554;50.766;2.900;2022-10-31T05:17:26;101302.00;;;17.66;66.12
60854;BME280;48554;50.766;2.900;2022-10-31T05:19:47;101309.19;;;17.65;65.86
60854;BME280;48554;50.766;2.900;2022-10-31T05:22:07;101300.81;;;17.62;66.14
60854;BME280;48554;50.766;2.900;2022-10-31T05:24:27;101301.63;;;17.62;65.94
60854;BME280;48554;50.766;2.900;2022-10-31T05:26:48;101285.81;;;17.61;66.12
60854;BME280;48554;50.766;2.900;2022-10-31T05:29:08;101294.66;;;17.61;65.94
60854;BME280;48554;50.766;2.900;2022-10-31T05:31:29;101291.59;;;17.58;65.90
60854;BME280;48554;50.766;2.900;2022-10-31T05:33:49;101296.38;;;17.55;65.89
60854;BME280;48554;50.766;2.900;2022-10-31T05:36:09;101296.38;;;17.55;66.05
60854;BME280;48554;50.766;2.900;2022-10-31T05:38:30;101292.66;;;17.57;65.97
60854;BME280;48554;50.766;2.900;2022-10-31T05:40:54;101291.03;;;17.55;66.03
60854;BME280;48554;50.766;2.900;2022-10-31T05:43:14;101286.50;;;17.56;65.98
60854;BME280;48554;50.766;2.900;2022-10-31T05:45:34;101289.41;;;17.54;65.81
60854;BME280;48554;50.766;2.900;2022-10-31T05:47:59;101293.16;;;17.53;66.13
60854;BME280;48554;50.766;2.900;2022-10-31T05:50:20;101296.84;;;17.52;65.92
60854;BME280;48554;50.766;2.900;2022-10-31T05:52:40;101291.50;;;17.52;65.99
60854;BME280;48554;50.766;2.900;2022-10-31T05:55:01;101294.19;;;17.52;65.94
60854;BME280;48554;50.766;2.900;2022-10-31T05:57:21;101293.94;;;17.54;65.69
60854;BME280;48554;50.766;2.900;2022-10-31T05:59:41;101294.44;;;17.51;65.89
60854;BME280;48554;50.766;2.900;2022-10-31T06:02:02;101293.84;;;17.49;65.83
60854;BME280;48554;50.766;2.900;2022-10-31T06:04:22;101294.44;;;17.51;65.81
60854;BME280;48554;50.766;2.900;2022-10-31T06:06:42;101296.25;;;17.50;65.56
60854;BME280;48554;50.766;2.900;2022-10-31T06:09:02;101288.22;;;17.50;65.72
60854;BME280;48554;50.766;2.900;2022-10-31T06:11:23;101279.16;;;17.63;65.66
60854;BME280;48554;50.766;2.900;2022-10-31T06:13:44;101274.03;;;17.62;65.62
60854;BME280;48554;50.766;2.900;2022-10-31T06:16:04;101271.81;;;17.59;65.98
60854;BME280;48554;50.766;2.900;2022-10-31T06:18:24;101267.50;;;17.58;66.18
60854;BME280;48554;50.766;2.900;2022-10-31T06:20:45;101270.75;;;17.60;66.26
60854;BME280;48554;50.766;2.900;2022-10-31T06:23:06;101255.03;;;17.63;66.00
60854;BME280;48554;50.766;2.900;2022-10-31T06:25:26;101257.47;;;17.65;65.88
60854;BME280;48554;50.766;2.900;2022-10-31T06:27:47;101267.97;;;17.66;65.95
60854;BME280;48554;50.766;2.900;2022-10-31T06:30:07;101271.56;;;17.72;65.75
60854;BME280;48554;50.766;2.900;2022-10-31T06:32:28;101272.13;;;17.74;65.69
60854;BME280;48554;50.766;2.900;2022-10-31T06:34:49;101264.69;;;17.76;65.51
60854;BME280;48554;50.766;2.900;2022-10-31T06:37:11;101273.19;;;17.85;65.30
60854;BME280;48554;50.766;2.900;2022-10-31T06:39:31;101266.78;;;17.86;65.28
60854;BME280;48554;50.766;2.900;2022-10-31T06:41:51;101272.75;;;17.88;65.52
60854;BME280;48554;50.766;2.900;2022-10-31T06:44:12;101272.75;;;17.88;65.54
60854;BME280;48554;50.766;2.900;2022-10-31T06:46:32;101267.97;;;17.90;65.52
60854;BME280;48554;50.766;2.900;2022-10-31T06:48:52;101272.84;;;17.93;65.79
60854;BME280;48554;50.766;2.900;2022-10-31T06:51:12;101267.72;;;17.91;65.86
60854;BME280;48554;50.766;2.900;2022-10-31T06:53:33;101261.75;;;17.89;66.79
60854;BME280;48554;50.766;2.900;2022-10-31T06:55:57;101267.97;;;17.90;67.09
60854;BME280;48554;50.766;2.900;2022-10-31T06:58:18;101262.25;;;17.86;67.68
60854;BME280;48554;50.766;2.900;2022-10-31T07:00:38;101272.94;;;17.74;68.76
60854;BME280;48554;50.766;2.900;2022-10-31T07:03:04;101275.31;;;17.71;69.15
60854;BME280;48554;50.766;2.900;2022-10-31T07:05:25;101273.06;;;17.68;68.05
60854;BME280;48554;50.766;2.900;2022-10-31T07:07:46;101273.31;;;17.66;67.89
60854;BME280;48554;50.766;2.900;2022-10-31T07:10:06;101277.88;;;17.66;67.83
60854;BME280;48554;50.766;2.900;2022-10-31T07:12:27;101266.56;;;17.64;67.95
60854;BME280;48554;50.766;2.900;2022-10-31T07:14:47;101271.94;;;17.64;67.81
60854;BME280;48554;50.766;2.900;2022-10-31T07:17:07;101275.41;;;17.64;67.48
60854;BME280;48554;50.766;2.900;2022-10-31T07:19:27;101271.94;;;17.64;67.50
60854;BME280;48554;50.766;2.900;2022-10-31T07:21:48;101276.22;;;17.65;67.59
60854;BME280;48554;50.766;2.900;2022-10-31T07:24:08;101269.25;;;17.64;67.60
60854;BME280;48554;50.766;2.900;2022-10-31T07:26:28;101271.94;;;17.64;67.60
60854;BME280;48554;50.766;2.900;2022-10-31T07:28:48;101271.94;;;17.64;67.60
60854;BME280;48554;50.766;2.900;2022-10-31T07:31:09;101268.66;;;17.62;67.67
60854;BME280;48554;50.766;2.900;2022-10-31T07:33:29;101260.84;;;17.60;67.76
60854;BME280;48554;50.766;2.900;2022-10-31T07:35:49;101260.28;;;17.58;67.61
60854;BME280;48554;50.766;2.900;2022-10-31T07:38:11;101263.78;;;17.59;67.59
60854;BME280;48554;50.766;2.900;2022-10-31T07:40:32;101253.06;;;17.59;67.52
60854;BME280;48554;50.766;2.900;2022-10-31T07:42:52;101270.75;;;17.60;67.72
60854;BME280;48554;50.766;2.900;2022-10-31T07:45:15;101251.78;;;17.61;67.47
60854;BME280;48554;50.766;2.900;2022-10-31T07:47:39;101255.97;;;17.57;67.56
60854;BME280;48554;50.766;2.900;2022-10-31T07:49:59;101250.38;;;17.59;67.33
60854;BME280;48554;50.766;2.900;2022-10-31T07:52:20;101253.28;;;17.57;67.50
60854;BME280;48554;50.766;2.900;2022-10-31T07:54:40;101247.34;;;17.55;67.69
60854;BME280;48554;50.766;2.900;2022-10-31T07:57:00;101247.72;;;17.59;67.46
60854;BME280;48554;50.766;2.900;2022-10-31T07:59:21;101246.16;;;17.63;67.39
60854;BME280;48554;50.766;2.900;2022-10-31T08:01:41;101242.34;;;17.59;67.42
60854;BME280;48554;50.766;2.900;2022-10-31T08:04:01;101249.31;;;17.60;67.55
60854;BME280;48554;50.766;2.900;2022-10-31T08:06:21;101239.09;;;17.57;67.60
60854;BME280;48554;50.766;2.900;2022-10-31T08:08:42;101243.84;;;17.54;67.53
60854;BME280;48554;50.766;2.900;2022-10-31T08:11:02;101252.13;;;17.53;67.58
60854;BME280;48554;50.766;2.900;2022-10-31T08:13:22;101245.38;;;17.50;67.47
60854;BME280;48554;50.766;2.900;2022-10-31T08:15:42;101256.09;;;17.50;67.35
60854;BME280;48554;50.766;2.900;2022-10-31T08:18:03;101245.03;;;17.47;67.28
60854;BME280;48554;50.766;2.900;2022-10-31T08:20:24;101242.00;;;17.43;67.25
60854;BME280;48554;50.766;2.900;2022-10-31T08:22:53;101246.81;;;17.41;67.32
60854;BME280;48554;50.766;2.900;2022-10-31T08:25:13;101238.19;;;17.39;67.28
60854;BME280;48554;50.766;2.900;2022-10-31T08:27:33;101246.44;;;17.38;67.34
60854;BME280;48554;50.766;2.900;2022-10-31T08:29:54;101240.28;;;17.37;67.33
60854;BME280;48554;50.766;2.900;2022-10-31T08:32:14;101240.50;;;17.36;67.10
60854;BME280;48554;50.766;2.900;2022-10-31T08:34:34;101249.59;;;17.35;67.32
60854;BME280;48554;50.766;2.900;2022-10-31T08:36:54;101234.81;;;17.32;67.23
60854;BME280;48554;50.766;2.900;2022-10-31T08:39:15;101232.94;;;17.32;67.14
60854;BME280;48554;50.766;2.900;2022-10-31T08:41:35;101237.47;;;17.32;67.10
60854;BME280;48554;50.766;2.900;2022-10-31T08:43:55;101234.00;;;17.31;67.08
60854;BME280;48554;50.766;2.900;2022-10-31T08:46:16;101228.38;;;17.33;67.10
60854;BME280;48554;50.766;2.900;2022-10-31T08:48:36;101221.63;;;17.30;67.02
60854;BME280;48554;50.766;2.900;2022-10-31T08:50:57;101220.81;;;17.30;67.08
60854;BME280;48554;50.766;2.900;2022-10-31T08:53:19;101227.25;;;17.29;67.01
60854;BME280;48554;50.766;2.900;2022-10-31T08:55:40;101217.34;;;17.29;66.92
60854;BME280;48554;50.766;2.900;2022-10-31T08:58:01;101219.75;;;17.31;66.91
60854;BME280;48554;50.766;2.900;2022-10-31T09:00:22;101221.41;;;17.32;66.79
60854;BME280;48554;50.766;2.900;2022-10-31T09:02:43;101218.94;;;17.30;66.81
60854;BME280;48554;50.766;2.900;2022-10-31T09:05:03;101217.56;;;17.28;66.74
60854;BME280;48554;50.766;2.900;2022-10-31T09:07:24;101213.84;;;17.29;66.52
60854;BME280;48554;50.766;2.900;2022-10-31T09:09:44;101204.97;;;17.28;66.76
60854;BME280;48554;50.766;2.900;2022-10-31T09:12:04;101193.47;;;17.28;66.64
60854;BME280;48554;50.766;2.900;2022-10-31T09:14:25;101185.66;;;17.26;66.85
60854;BME280;48554;50.766;2.900;2022-10-31T09:16:45;101184.03;;;17.25;66.66
60854;BME280;48554;50.766;2.900;2022-10-31T09:19:05;101182.75;;;17.28;66.55
60854;BME280;48554;50.766;2.900;2022-10-31T09:21:25;101176.22;;;17.24;66.81
60854;BME280;48554;50.766;2.900;2022-10-31T09:23:46;101174.94;;;17.26;66.84
60854;BME280;48554;50.766;2.900;2022-10-31T09:26:06;101177.06;;;17.24;66.51
60854;BME280;48554;50.766;2.900;2022-10-31T09:28:26;101169.03;;;17.24;66.72
60854;BME280;48554;50.766;2.900;2022-10-31T09:30:48;101164.97;;;17.22;66.54
60854;BME280;48554;50.766;2.900;2022-10-31T09:33:10;101159.03;;;17.20;66.72
60854;BME280;48554;50.766;2.900;2022-10-31T09:35:31;101152.03;;;17.19;66.83
60854;BME280;48554;50.766;2.900;2022-10-31T09:38:02;101152.03;;;17.19;66.69
60854;BME280;48554;50.766;2.900;2022-10-31T09:40:31;101151.56;;;17.22;66.76
60854;BME280;48554;50.766;2.900;2022-10-31T09:48:33;101124.31;;;17.25;67.15
60854;BME280;48554;50.766;2.900;2022-10-31T09:51:05;101110.22;;;17.29;66.55
60854;BME280;48554;50.766;2.900;2022-10-31T09:53:44;101116.97;;;17.32;66.35
60854;BME280;48554;50.766;2.900;2022-10-31T09:56:10;101109.63;;;17.39;66.29
60854;BME280;48554;50.766;2.900;2022-10-31T09:58:34;101111.31;;;17.45;66.24
60854;BME280;48554;50.766;2.900;2022-10-31T10:01:01;101099.09;;;17.49;66.12
60854;BME280;48554;50.766;2.900;2022-10-31T10:03:35;101098.63;;;17.52;66.15
60854;BME280;48554;50.766;2.900;2022-10-31T10:06:26;101089.53;;;17.53;66.40
60854;BME280;48554;50.766;2.900;2022-10-31T10:08:47;101093.13;;;17.59;66.18
60854;BME280;48554;50.766;2.900;2022-10-31T10:14:01;101081.69;;;17.64;65.92
60854;BME280;48554;50.766;2.900;2022-10-31T10:19:09;101080.81;;;17.75;65.71
60854;BME280;48554;50.766;2.900;2022-10-31T10:25:32;101079.50;;;17.77;65.54
60854;BME280;48554;50.766;2.900;2022-10-31T10:27:57;101074.16;;;17.77;65.66
60854;BME280;48554;50.766;2.900;2022-10-31T10:30:21;101078.28;;;17.80;65.84
60854;BME280;48554;50.766;2.900;2022-10-31T10:32:53;101067.56;;;17.80;65.55
60854;BME280;48554;50.766;2.900;2022-10-31T10:35:30;101060.53;;;17.79;65.60
60854;BME280;48554;50.766;2.900;2022-10-31T10:38:02;101050.41;;;17.81;65.55
60854;BME280;48554;50.766;2.900;2022-10-31T10:40:25;101035.72;;;17.84;65.33
60854;BME280;48554;50.766;2.900;2022-10-31T10:45:19;101029.53;;;17.83;65.46
60854;BME280;48554;50.766;2.900;2022-10-31T10:47:46;101032.81;;;17.85;65.36
60854;BME280;48554;50.766;2.900;2022-10-31T10:55:10;101029.84;;;17.87;65.29
60854;BME280;48554;50.766;2.900;2022-10-31T11:00:25;101024.84;;;17.90;65.43
60854;BME280;48554;50.766;2.900;2022-10-31T11:02:45;101006.06;;;17.90;65.32
60854;BME280;48554;50.766;2.900;2022-10-31T11:05:15;101005.81;;;17.92;65.19
60854;BME280;48554;50.766;2.900;2022-10-31T11:07:38;100986.81;;;17.93;65.27
60854;BME280;48554;50.766;2.900;2022-10-31T11:10:04;100992.19;;;17.93;65.01
60854;BME280;48554;50.766;2.900;2022-10-31T11:12:30;100982.84;;;17.96;65.00
60854;BME280;48554;50.766;2.900;2022-10-31T11:14:57;100974.31;;;17.99;64.94
60854;BME280;48554;50.766;2.900;2022-10-31T11:17:31;100974.31;;;17.99;65.02
60854;BME280;48554;50.766;2.900;2022-10-31T11:22:32;100971.97;;;18.03;65.09
60854;BME280;48554;50.766;2.900;2022-10-31T11:24:52;100958.28;;;18.04;65.01
60854;BME280;48554;50.766;2.900;2022-10-31T11:29:34;100958.63;;;18.08;65.26
60854;BME280;48554;50.766;2.900;2022-10-31T11:31:56;100948.47;;;18.10;65.05
60854;BME280;48554;50.766;2.900;2022-10-31T11:34:34;100948.22;;;18.11;65.21
60854;BME280;48554;50.766;2.900;2022-10-31T11:37:11;100939.34;;;18.11;65.26
60854;BME280;48554;50.766;2.900;2022-10-31T11:39:46;100932.13;;;18.11;65.29
60854;BME280;48554;50.766;2.900;2022-10-31T11:42:08;100926.75;;;18.11;65.34
60854;BME280;48554;50.766;2.900;2022-10-31T11:44:30;100929.69;;;18.10;65.28
60854;BME280;48554;50.766;2.900;2022-10-31T11:46:59;100916.31;;;18.10;65.44
60854;BME280;48554;50.766;2.900;2022-10-31T11:49:29;100913.63;;;18.10;65.57
60854;BME280;48554;50.766;2.900;2022-10-31T11:51:54;100903.13;;;18.08;65.45
60854;BME280;48554;50.766;2.900;2022-10-31T11:54:29;100894.50;;;18.06;65.51
60854;BME280;48554;50.766;2.900;2022-10-31T11:56:50;100898.00;;;18.07;65.50
60854;BME280;48554;50.766;2.900;2022-10-31T11:59:37;100894.78;;;18.05;65.30
60854;BME280;48554;50.766;2.900;2022-10-31T12:02:00;100890.22;;;18.05;65.36
60854;BME280;48554;50.766;2.900;2022-10-31T12:04:55;100880.53;;;18.04;65.34
60854;BME280;48554;50.766;2.900;2022-10-31T12:07:07;100877.06;;;18.04;65.43
60854;BME280;48554;50.766;2.900;2022-10-31T12:09:29;100863.91;;;18.02;65.45
60854;BME280;48554;50.766;2.900;2022-10-31T12:17:17;100853.44;;;18.01;65.49
60854;BME280;48554;50.766;2.900;2022-10-31T12:25:19;100828.72;;;17.99;65.67
60854;BME280;48554;50.766;2.900;2022-10-31T12:35:41;100811.50;;;17.94;65.96
60854;BME280;48554;50.766;2.900;2022-10-31T12:44:00;100797.00;;;17.90;66.15
60854;BME280;48554;50.766;2.900;2022-10-31T12:54:47;100784.09;;;17.87;66.22
60854;BME280;48554;50.766;2.900;2022-10-31T13:00:11;100762.63;;;17.87;66.33
60854;BME280;48554;50.766;2.900;2022-10-31T13:05:11;100738.22;;;17.84;66.35
60854;BME280;48554;50.766;2.900;2022-10-31T13:07:57;100729.38;;;17.83;66.53
60854;BME280;48554;50.766;2.900;2022-10-31T13:10:24;100716.22;;;17.82;66.37
60854;BME280;48554;50.766;2.900;2022-10-31T13:12:47;100712.72;;;17.81;66.35
60854;BME280;48554;50.766;2.900;2022-10-31T13:15:19;100701.41;;;17.79;66.48
60854;BME280;48554;50.766;2.900;2022-10-31T13:17:44;100689.69;;;17.80;66.43
60854;BME280;48554;50.766;2.900;2022-10-31T13:22:38;100668.53;;;17.84;65.93
60854;BME280;48554;50.766;2.900;2022-10-31T13:25:03;100665.06;;;17.83;65.70
60854;BME280;48554;50.766;2.900;2022-10-31T13:27:41;100661.06;;;17.86;65.72
60854;BME280;48554;50.766;2.900;2022-10-31T13:30:13;100658.13;;;17.87;65.69
60854;BME280;48554;50.766;2.900;2022-10-31T13:32:39;100655.44;;;17.87;65.71
60854;BME280;48554;50.766;2.900;2022-10-31T13:35:01;100650.06;;;17.87;65.65
60854;BME280;48554;50.766;2.900;2022-10-31T13:42:52;100631.06;;;17.89;65.58
60854;BME280;48554;50.766;2.900;2022-10-31T13:45:16;100631.88;;;17.89;65.64
60854;BME280;48554;50.766;2.900;2022-10-31T13:47:37;100627.34;;;17.90;65.63
60854;BME280;48554;50.766;2.900;2022-10-31T13:52:26;100619.03;;;17.91;65.45
60854;BME280;48554;50.766;2.900;2022-10-31T13:54:48;100619.03;;;17.91;65.59
60854;BME280;48554;50.766;2.900;2022-10-31T13:57:17;100612.06;;;17.90;65.43
60854;BME280;48554;50.766;2.900;2022-10-31T13:59:38;100608.31;;;17.91;65.59
60854;BME280;48554;50.766;2.900;2022-10-31T14:02:00;100608.31;;;17.91;65.52
60854;BME280;48554;50.766;2.900;2022-10-31T14:04:35;100608.31;;;17.91;65.50
60854;BME280;48554;50.766;2.900;2022-10-31T14:07:11;100604.84;;;17.91;65.64
60854;BME280;48554;50.766;2.900;2022-10-31T14:09:35;100596.78;;;17.91;65.62
60854;BME280;48554;50.766;2.900;2022-10-31T14:12:02;100591.44;;;17.91;65.68
60854;BME280;48554;50.766;2.900;2022-10-31T14:14:45;100585.28;;;17.90;65.70
60854;BME280;48554;50.766;2.900;2022-10-31T14:17:18;100589.56;;;17.91;65.75
60854;BME280;48554;50.766;2.900;2022-10-31T14:19:39;100576.16;;;17.91;65.77
60854;BME280;48554;50.766;2.900;2022-10-31T14:21:59;100566.50;;;17.90;65.71
60854;BME280;48554;50.766;2.900;2022-10-31T14:27:01;100556.59;;;17.91;65.42